sensor_id;sensor_type;location;lat;lon;timestamp;temperature;humidity
66928;DHT22;59882;45.624;11.698;2023-05-20T00:00:43;17.20;64.80
66928;DHT22;59882;45.624;11.698;2023-05-20T00:03:09;17.20;64.70
66928;DHT22;59882;45.624;11.698;2023-05-20T00:05:35;17.20;64.40
66928;DHT22;59882;45.624;11.698;2023-05-20T00:08:01;17.20;65.00
66928;DHT22;59882;45.624;11.698;2023-05-20T00:10:28;17.10;64.70
66928;DHT22;59882;45.624;11.698;2023-05-20T00:12:54;17.10;64.30
66928;DHT22;59882;45.624;11.698;2023-05-20T00:15:20;17.20;64.50
66928;DHT22;59882;45.624;11.698;2023-05-20T00:17:45;17.20;64.50
66928;DHT22;59882;45.624;11.698;2023-05-20T00:20:11;17.20;64.50
66928;DHT22;59882;45.624;11.698;2023-05-20T00:22:37;17.30;64.70
66928;DHT22;59882;45.624;11.698;2023-05-20T00:25:02;17.30;64.70
66928;DHT22;59882;45.624;11.698;2023-05-20T00:27:28;17.30;64.90
66928;DHT22;59882;45.624;11.698;2023-05-20T00:29:54;17.30;64.90
66928;DHT22;59882;45.624;11.698;2023-05-20T00:32:19;17.30;65.00
66928;DHT22;59882;45.624;11.698;2023-05-20T00:34:55;17.30;65.10
66928;DHT22;59882;45.624;11.698;2023-05-20T00:37:21;17.30;65.20
66928;DHT22;59882;45.624;11.698;2023-05-20T00:39:47;17.30;65.50
66928;DHT22;59882;45.624;11.698;2023-05-20T00:42:19;17.30;65.70
66928;DHT22;59882;45.624;11.698;2023-05-20T00:44:45;17.30;65.90
66928;DHT22;59882;45.624;11.698;2023-05-20T00:47:11;17.20;65.70
66928;DHT22;59882;45.624;11.698;2023-05-20T00:49:37;17.30;65.70
66928;DHT22;59882;45.624;11.698;2023-05-20T00:52:02;17.20;65.70
66928;DHT22;59882;45.624;11.698;2023-05-20T00:54:28;17.20;65.80
66928;DHT22;59882;45.624;11.698;2023-05-20T00:56:54;17.30;65.90
66928;DHT22;59882;45.624;11.698;2023-05-20T00:59:20;17.30;66.00
66928;DHT22;59882;45.624;11.698;2023-05-20T01:01:46;17.20;66.30
66928;DHT22;59882;45.624;11.698;2023-05-20T01:04:12;17.20;66.30
66928;DHT22;59882;45.624;11.698;2023-05-20T01:06:38;17.30;66.50
66928;DHT22;59882;45.624;11.698;2023-05-20T01:09:03;17.20;66.50
66928;DHT22;59882;45.624;11.698;2023-05-20T01:11:33;17.20;66.60
66928;DHT22;59882;45.624;11.698;2023-05-20T01:14:02;17.20;66.70
66928;DHT22;59882;45.624;11.698;2023-05-20T01:16:31;17.20;66.90
66928;DHT22;59882;45.624;11.698;2023-05-20T01:18:58;17.20;67.20
66928;DHT22;59882;45.624;11.698;2023-05-20T01:21:27;17.20;67.10
66928;DHT22;59882;45.624;11.698;2023-05-20T01:23:54;17.20;67.40
66928;DHT22;59882;45.624;11.698;2023-05-20T01:26:20;17.10;67.70
66928;DHT22;59882;45.624;11.698;2023-05-20T01:28:46;17.20;67.80
66928;DHT22;59882;45.624;11.698;2023-05-20T01:31:26;17.10;68.20
66928;DHT22;59882;45.624;11.698;2023-05-20T01:33:55;17.10;68.10
66928;DHT22;59882;45.624;11.698;2023-05-20T01:36:22;17.10;68.30
66928;DHT22;59882;45.624;11.698;2023-05-20T01:38:50;17.10;68.60
66928;DHT22;59882;45.624;11.698;2023-05-20T01:41:16;17.00;68.70
66928;DHT22;59882;45.624;11.698;2023-05-20T01:43:43;17.00;68.80
66928;DHT22;59882;45.624;11.698;2023-05-20T01:46:09;17.00;69.00
66928;DHT22;59882;45.624;11.698;2023-05-20T01:48:35;16.90;69.30
66928;DHT22;59882;45.624;11.698;2023-05-20T01:51:00;16.90;69.90
66928;DHT22;59882;45.624;11.698;2023-05-20T01:53:26;16.90;69.90
66928;DHT22;59882;45.624;11.698;2023-05-20T01:55:52;16.90;69.50
66928;DHT22;59882;45.624;11.698;2023-05-20T01:58:17;16.90;69.70
66928;DHT22;59882;45.624;11.698;2023-05-20T02:00:43;16.80;70.10
66928;DHT22;59882;45.624;11.698;2023-05-20T02:03:08;16.80;69.70
66928;DHT22;59882;45.624;11.698;2023-05-20T02:05:34;16.80;69.30
66928;DHT22;59882;45.624;11.698;2023-05-20T02:07:59;16.90;69.20
66928;DHT22;59882;45.624;11.698;2023-05-20T02:10:25;16.90;69.20
66928;DHT22;59882;45.624;11.698;2023-05-20T02:12:51;16.90;69.30
66928;DHT22;59882;45.624;11.698;2023-05-20T02:15:16;16.90;69.30
66928;DHT22;59882;45.624;11.698;2023-05-20T02:17:42;16.90;69.30
66928;DHT22;59882;45.624;11.698;2023-05-20T02:20:08;16.90;69.40
66928;DHT22;59882;45.624;11.698;2023-05-20T02:22:35;16.90;69.30
66928;DHT22;59882;45.624;11.698;2023-05-20T02:25:00;16.90;69.50
66928;DHT22;59882;45.624;11.698;2023-05-20T02:27:26;16.90;69.80
66928;DHT22;59882;45.624;11.698;2023-05-20T02:29:52;16.80;70.30
66928;DHT22;59882;45.624;11.698;2023-05-20T02:32:17;16.80;69.90
66928;DHT22;59882;45.624;11.698;2023-05-20T02:34:44;16.80;70.40
66928;DHT22;59882;45.624;11.698;2023-05-20T02:37:10;16.80;70.40
66928;DHT22;59882;45.624;11.698;2023-05-20T02:39:36;16.80;70.70
66928;DHT22;59882;45.624;11.698;2023-05-20T02:42:01;16.70;70.80
66928;DHT22;59882;45.624;11.698;2023-05-20T02:44:29;16.70;70.60
66928;DHT22;59882;45.624;11.698;2023-05-20T02:46:54;16.70;71.00
66928;DHT22;59882;45.624;11.698;2023-05-20T02:49:20;16.70;70.80
66928;DHT22;59882;45.624;11.698;2023-05-20T02:51:46;16.70;70.90
66928;DHT22;59882;45.624;11.698;2023-05-20T02:54:11;16.70;71.40
66928;DHT22;59882;45.624;11.698;2023-05-20T02:56:37;16.60;71.10
66928;DHT22;59882;45.624;11.698;2023-05-20T02:59:03;16.70;70.90
66928;DHT22;59882;45.624;11.698;2023-05-20T03:01:29;16.70;71.40
66928;DHT22;59882;45.624;11.698;2023-05-20T03:03:55;16.60;71.10
66928;DHT22;59882;45.624;11.698;2023-05-20T03:06:20;16.60;71.10
66928;DHT22;59882;45.624;11.698;2023-05-20T03:08:46;16.60;71.70
66928;DHT22;59882;45.624;11.698;2023-05-20T03:11:12;16.60;71.40
66928;DHT22;59882;45.624;11.698;2023-05-20T03:13:37;16.60;71.30
66928;DHT22;59882;45.624;11.698;2023-05-20T03:16:03;16.60;71.20
66928;DHT22;59882;45.624;11.698;2023-05-20T03:18:29;16.60;71.20
66928;DHT22;59882;45.624;11.698;2023-05-20T03:20:55;16.70;71.10
66928;DHT22;59882;45.624;11.698;2023-05-20T03:23:20;16.70;71.20
66928;DHT22;59882;45.624;11.698;2023-05-20T03:25:47;16.70;71.20
66928;DHT22;59882;45.624;11.698;2023-05-20T03:28:13;16.70;71.20
66928;DHT22;59882;45.624;11.698;2023-05-20T03:30:38;16.70;71.20
66928;DHT22;59882;45.624;11.698;2023-05-20T03:33:04;16.60;71.20
66928;DHT22;59882;45.624;11.698;2023-05-20T03:35:30;16.70;71.60
66928;DHT22;59882;45.624;11.698;2023-05-20T03:37:56;16.60;71.50
66928;DHT22;59882;45.624;11.698;2023-05-20T03:40:22;16.60;71.50
66928;DHT22;59882;45.624;11.698;2023-05-20T03:42:47;16.60;71.60
66928;DHT22;59882;45.624;11.698;2023-05-20T03:45:15;16.70;71.60
66928;DHT22;59882;45.624;11.698;2023-05-20T03:47:40;16.60;71.60
66928;DHT22;59882;45.624;11.698;2023-05-20T03:50:06;16.60;71.60
66928;DHT22;59882;45.624;11.698;2023-05-20T03:52:32;16.60;71.50
66928;DHT22;59882;45.624;11.698;2023-05-20T03:54:59;16.60;71.50
66928;DHT22;59882;45.624;11.698;2023-05-20T03:57:24;16.60;71.40
66928;DHT22;59882;45.624;11.698;2023-05-20T03:59:50;16.60;71.60
66928;DHT22;59882;45.624;11.698;2023-05-20T04:02:16;16.60;71.50
66928;DHT22;59882;45.624;11.698;2023-05-20T04:04:41;16.60;71.70
66928;DHT22;59882;45.624;11.698;2023-05-20T04:07:08;16.60;71.50
66928;DHT22;59882;45.624;11.698;2023-05-20T04:09:35;16.60;71.60
66928;DHT22;59882;45.624;11.698;2023-05-20T04:12:01;16.60;71.60
66928;DHT22;59882;45.624;11.698;2023-05-20T04:14:27;16.60;71.70
66928;DHT22;59882;45.624;11.698;2023-05-20T04:16:53;16.60;71.80
66928;DHT22;59882;45.624;11.698;2023-05-20T04:19:19;16.60;71.70
66928;DHT22;59882;45.624;11.698;2023-05-20T04:21:44;16.70;71.60
66928;DHT22;59882;45.624;11.698;2023-05-20T04:24:10;16.70;71.50
66928;DHT22;59882;45.624;11.698;2023-05-20T04:26:36;16.70;71.40
66928;DHT22;59882;45.624;11.698;2023-05-20T04:29:03;16.80;71.50
66928;DHT22;59882;45.624;11.698;2023-05-20T04:31:29;16.80;71.30
66928;DHT22;59882;45.624;11.698;2023-05-20T04:33:56;16.80;71.50
66928;DHT22;59882;45.624;11.698;2023-05-20T04:36:22;16.80;71.30
66928;DHT22;59882;45.624;11.698;2023-05-20T04:38:53;16.80;71.30
66928;DHT22;59882;45.624;11.698;2023-05-20T04:41:18;16.90;71.40
66928;DHT22;59882;45.624;11.698;2023-05-20T04:43:44;16.90;71.40
66928;DHT22;59882;45.624;11.698;2023-05-20T04:46:10;16.90;71.20
66928;DHT22;59882;45.624;11.698;2023-05-20T04:48:35;16.90;71.30
66928;DHT22;59882;45.624;11.698;2023-05-20T04:51:01;16.90;71.10
66928;DHT22;59882;45.624;11.698;2023-05-20T04:53:27;16.90;70.90
66928;DHT22;59882;45.624;11.698;2023-05-20T04:55:55;16.90;70.80
66928;DHT22;59882;45.624;11.698;2023-05-20T04:58:21;17.00;70.70
66928;DHT22;59882;45.624;11.698;2023-05-20T05:00:49;17.00;70.80
66928;DHT22;59882;45.624;11.698;2023-05-20T05:03:16;17.10;70.80
66928;DHT22;59882;45.624;11.698;2023-05-20T05:05:42;17.10;70.70
66928;DHT22;59882;45.624;11.698;2023-05-20T05:08:08;17.10;70.70
66928;DHT22;59882;45.624;11.698;2023-05-20T05:10:36;17.10;70.80
66928;DHT22;59882;45.624;11.698;2023-05-20T05:13:02;17.10;70.70
66928;DHT22;59882;45.624;11.698;2023-05-20T05:15:28;17.20;70.70
66928;DHT22;59882;45.624;11.698;2023-05-20T05:17:54;17.20;70.50
66928;DHT22;59882;45.624;11.698;2023-05-20T05:20:20;17.30;70.50
66928;DHT22;59882;45.624;11.698;2023-05-20T05:22:46;17.30;70.40
66928;DHT22;59882;45.624;11.698;2023-05-20T05:25:12;17.40;70.40
66928;DHT22;59882;45.624;11.698;2023-05-20T05:27:38;17.40;70.10
66928;DHT22;59882;45.624;11.698;2023-05-20T05:30:05;17.40;70.10
66928;DHT22;59882;45.624;11.698;2023-05-20T05:32:31;17.40;70.10
66928;DHT22;59882;45.624;11.698;2023-05-20T05:34:57;17.40;70.00
66928;DHT22;59882;45.624;11.698;2023-05-20T05:37:23;17.50;69.70
66928;DHT22;59882;45.624;11.698;2023-05-20T05:39:49;17.50;69.60
66928;DHT22;59882;45.624;11.698;2023-05-20T05:42:14;17.60;69.30
66928;DHT22;59882;45.624;11.698;2023-05-20T05:44:40;17.70;69.10
66928;DHT22;59882;45.624;11.698;2023-05-20T05:47:06;17.70;69.00
66928;DHT22;59882;45.624;11.698;2023-05-20T05:49:32;17.80;69.00
66928;DHT22;59882;45.624;11.698;2023-05-20T05:51:58;17.90;68.80
66928;DHT22;59882;45.624;11.698;2023-05-20T05:54:24;17.90;68.50
66928;DHT22;59882;45.624;11.698;2023-05-20T05:56:53;18.00;68.30
66928;DHT22;59882;45.624;11.698;2023-05-20T05:59:19;18.10;68.00
66928;DHT22;59882;45.624;11.698;2023-05-20T06:01:44;18.20;67.90
66928;DHT22;59882;45.624;11.698;2023-05-20T06:04:10;18.30;67.90
66928;DHT22;59882;45.624;11.698;2023-05-20T06:06:36;18.40;67.90
66928;DHT22;59882;45.624;11.698;2023-05-20T06:09:02;18.40;67.60
66928;DHT22;59882;45.624;11.698;2023-05-20T06:11:28;18.50;67.60
66928;DHT22;59882;45.624;11.698;2023-05-20T06:13:53;18.60;67.10
66928;DHT22;59882;45.624;11.698;2023-05-20T06:16:19;18.70;67.10
66928;DHT22;59882;45.624;11.698;2023-05-20T06:18:45;18.80;66.90
66928;DHT22;59882;45.624;11.698;2023-05-20T06:21:11;18.90;66.40
66928;DHT22;59882;45.624;11.698;2023-05-20T06:23:37;18.90;66.00
66928;DHT22;59882;45.624;11.698;2023-05-20T06:26:02;19.10;66.20
66928;DHT22;59882;45.624;11.698;2023-05-20T06:28:29;19.10;65.70
66928;DHT22;59882;45.624;11.698;2023-05-20T06:30:55;19.10;65.00
66928;DHT22;59882;45.624;11.698;2023-05-20T06:33:24;19.20;65.20
66928;DHT22;59882;45.624;11.698;2023-05-20T06:35:54;19.20;64.60
66928;DHT22;59882;45.624;11.698;2023-05-20T06:38:20;19.30;65.20
66928;DHT22;59882;45.624;11.698;2023-05-20T06:40:47;19.30;65.60
66928;DHT22;59882;45.624;11.698;2023-05-20T06:43:14;19.30;65.50
66928;DHT22;59882;45.624;11.698;2023-05-20T06:45:40;19.30;65.70
66928;DHT22;59882;45.624;11.698;2023-05-20T06:48:06;19.40;65.50
66928;DHT22;59882;45.624;11.698;2023-05-20T06:50:32;19.40;65.30
66928;DHT22;59882;45.624;11.698;2023-05-20T06:52:58;19.40;65.20
66928;DHT22;59882;45.624;11.698;2023-05-20T06:55:23;19.40;64.60
66928;DHT22;59882;45.624;11.698;2023-05-20T06:57:49;19.40;64.00
66928;DHT22;59882;45.624;11.698;2023-05-20T07:00:15;19.30;64.40
66928;DHT22;59882;45.624;11.698;2023-05-20T07:02:41;19.30;63.20
66928;DHT22;59882;45.624;11.698;2023-05-20T07:05:07;19.30;63.60
66928;DHT22;59882;45.624;11.698;2023-05-20T07:07:33;19.30;64.10
66928;DHT22;59882;45.624;11.698;2023-05-20T07:09:58;19.40;64.10
66928;DHT22;59882;45.624;11.698;2023-05-20T07:12:24;19.40;64.30
66928;DHT22;59882;45.624;11.698;2023-05-20T07:14:50;19.50;63.90
66928;DHT22;59882;45.624;11.698;2023-05-20T07:17:15;19.60;62.90
66928;DHT22;59882;45.624;11.698;2023-05-20T07:19:42;19.50;62.40
66928;DHT22;59882;45.624;11.698;2023-05-20T07:22:08;19.50;62.00
66928;DHT22;59882;45.624;11.698;2023-05-20T07:24:34;19.50;62.10
66928;DHT22;59882;45.624;11.698;2023-05-20T07:27:00;19.50;61.10
66928;DHT22;59882;45.624;11.698;2023-05-20T07:29:26;19.50;62.10
66928;DHT22;59882;45.624;11.698;2023-05-20T07:31:52;19.50;62.10
66928;DHT22;59882;45.624;11.698;2023-05-20T07:34:17;19.50;62.20
66928;DHT22;59882;45.624;11.698;2023-05-20T07:36:43;19.60;62.30
66928;DHT22;59882;45.624;11.698;2023-05-20T07:39:09;19.60;62.60
66928;DHT22;59882;45.624;11.698;2023-05-20T07:41:38;19.60;62.20
66928;DHT22;59882;45.624;11.698;2023-05-20T07:44:04;19.60;61.60
66928;DHT22;59882;45.624;11.698;2023-05-20T07:46:30;19.60;62.30
66928;DHT22;59882;45.624;11.698;2023-05-20T07:48:56;19.50;62.10
66928;DHT22;59882;45.624;11.698;2023-05-20T07:51:22;19.50;62.40
66928;DHT22;59882;45.624;11.698;2023-05-20T07:53:47;19.50;62.90
66928;DHT22;59882;45.624;11.698;2023-05-20T07:56:13;19.40;64.10
66928;DHT22;59882;45.624;11.698;2023-05-20T07:58:40;19.40;64.10
66928;DHT22;59882;45.624;11.698;2023-05-20T08:01:06;19.40;64.60
66928;DHT22;59882;45.624;11.698;2023-05-20T08:03:34;19.40;65.60
66928;DHT22;59882;45.624;11.698;2023-05-20T08:05:59;19.30;66.20
66928;DHT22;59882;45.624;11.698;2023-05-20T08:08:25;19.30;66.00
66928;DHT22;59882;45.624;11.698;2023-05-20T08:10:51;19.30;66.80
66928;DHT22;59882;45.624;11.698;2023-05-20T08:13:17;19.20;67.10
66928;DHT22;59882;45.624;11.698;2023-05-20T08:15:42;19.20;66.60
66928;DHT22;59882;45.624;11.698;2023-05-20T08:18:08;19.20;66.80
66928;DHT22;59882;45.624;11.698;2023-05-20T08:20:34;19.20;66.90
66928;DHT22;59882;45.624;11.698;2023-05-20T08:22:59;19.20;67.40
66928;DHT22;59882;45.624;11.698;2023-05-20T08:25:25;19.30;67.30
66928;DHT22;59882;45.624;11.698;2023-05-20T08:27:51;19.30;67.40
66928;DHT22;59882;45.624;11.698;2023-05-20T08:30:16;19.30;66.90
66928;DHT22;59882;45.624;11.698;2023-05-20T08:32:42;19.40;67.10
66928;DHT22;59882;45.624;11.698;2023-05-20T08:35:08;19.40;67.10
66928;DHT22;59882;45.624;11.698;2023-05-20T08:37:33;19.40;67.60
66928;DHT22;59882;45.624;11.698;2023-05-20T08:39:59;19.40;67.80
66928;DHT22;59882;45.624;11.698;2023-05-20T08:42:25;19.40;67.80
66928;DHT22;59882;45.624;11.698;2023-05-20T08:44:51;19.40;68.40
66928;DHT22;59882;45.624;11.698;2023-05-20T08:47:21;19.40;68.40
66928;DHT22;59882;45.624;11.698;2023-05-20T08:49:47;19.50;68.30
66928;DHT22;59882;45.624;11.698;2023-05-20T08:52:15;19.50;68.80
66928;DHT22;59882;45.624;11.698;2023-05-20T08:54:47;19.60;68.40
66928;DHT22;59882;45.624;11.698;2023-05-20T08:57:14;19.60;68.90
66928;DHT22;59882;45.624;11.698;2023-05-20T08:59:44;19.70;69.20
66928;DHT22;59882;45.624;11.698;2023-05-20T09:02:11;19.80;68.90
66928;DHT22;59882;45.624;11.698;2023-05-20T09:04:37;19.80;68.90
66928;DHT22;59882;45.624;11.698;2023-05-20T09:07:03;19.90;69.10
66928;DHT22;59882;45.624;11.698;2023-05-20T09:09:29;19.90;68.90
66928;DHT22;59882;45.624;11.698;2023-05-20T09:11:55;20.00;68.60
66928;DHT22;59882;45.624;11.698;2023-05-20T09:14:21;20.00;68.50
66928;DHT22;59882;45.624;11.698;2023-05-20T09:16:48;20.00;68.40
66928;DHT22;59882;45.624;11.698;2023-05-20T09:19:13;20.10;68.60
66928;DHT22;59882;45.624;11.698;2023-05-20T09:21:40;20.20;68.10
66928;DHT22;59882;45.624;11.698;2023-05-20T09:24:06;20.20;66.50
66928;DHT22;59882;45.624;11.698;2023-05-20T09:26:32;20.20;66.60
66928;DHT22;59882;45.624;11.698;2023-05-20T09:28:58;20.20;67.90
66928;DHT22;59882;45.624;11.698;2023-05-20T09:31:29;20.10;67.30
66928;DHT22;59882;45.624;11.698;2023-05-20T09:33:55;20.20;67.90
66928;DHT22;59882;45.624;11.698;2023-05-20T09:36:22;20.20;67.70
66928;DHT22;59882;45.624;11.698;2023-05-20T09:38:51;20.30;67.60
66928;DHT22;59882;45.624;11.698;2023-05-20T09:41:19;20.30;66.70
66928;DHT22;59882;45.624;11.698;2023-05-20T09:43:48;20.40;66.20
66928;DHT22;59882;45.624;11.698;2023-05-20T09:46:14;20.40;66.20
66928;DHT22;59882;45.624;11.698;2023-05-20T09:48:41;20.50;66.30
66928;DHT22;59882;45.624;11.698;2023-05-20T09:51:07;20.50;66.10
66928;DHT22;59882;45.624;11.698;2023-05-20T09:53:34;20.50;65.80
66928;DHT22;59882;45.624;11.698;2023-05-20T09:56:00;20.70;66.10
66928;DHT22;59882;45.624;11.698;2023-05-20T09:58:26;20.80;65.00
66928;DHT22;59882;45.624;11.698;2023-05-20T10:00:51;20.80;64.60
66928;DHT22;59882;45.624;11.698;2023-05-20T10:03:20;20.90;64.10
66928;DHT22;59882;45.624;11.698;2023-05-20T10:06:11;20.90;61.90
66928;DHT22;59882;45.624;11.698;2023-05-20T10:09:18;21.00;62.90
66928;DHT22;59882;45.624;11.698;2023-05-20T10:11:47;21.00;61.70
66928;DHT22;59882;45.624;11.698;2023-05-20T10:20:12;21.10;61.60
66928;DHT22;59882;45.624;11.698;2023-05-20T10:22:38;21.10;62.00
66928;DHT22;59882;45.624;11.698;2023-05-20T10:25:11;21.10;60.70
66928;DHT22;59882;45.624;11.698;2023-05-20T10:27:48;21.10;61.20
66928;DHT22;59882;45.624;11.698;2023-05-20T10:30:18;21.10;61.50
66928;DHT22;59882;45.624;11.698;2023-05-20T10:32:54;21.10;61.00
66928;DHT22;59882;45.624;11.698;2023-05-20T10:35:22;21.00;61.90
66928;DHT22;59882;45.624;11.698;2023-05-20T10:37:51;21.00;61.10
66928;DHT22;59882;45.624;11.698;2023-05-20T10:40:21;20.90;61.90
66928;DHT22;59882;45.624;11.698;2023-05-20T10:42:47;20.90;62.00
66928;DHT22;59882;45.624;11.698;2023-05-20T10:45:28;20.80;62.40
66928;DHT22;59882;45.624;11.698;2023-05-20T10:47:55;20.80;61.40
66928;DHT22;59882;45.624;11.698;2023-05-20T10:50:36;20.80;61.90
66928;DHT22;59882;45.624;11.698;2023-05-20T10:53:06;20.80;62.50
66928;DHT22;59882;45.624;11.698;2023-05-20T10:55:37;20.70;62.40
66928;DHT22;59882;45.624;11.698;2023-05-20T10:58:04;20.70;62.30
66928;DHT22;59882;45.624;11.698;2023-05-20T11:00:30;20.70;62.30
66928;DHT22;59882;45.624;11.698;2023-05-20T11:02:56;20.70;61.80
66928;DHT22;59882;45.624;11.698;2023-05-20T11:05:22;20.70;61.80
66928;DHT22;59882;45.624;11.698;2023-05-20T11:07:48;20.60;62.00
66928;DHT22;59882;45.624;11.698;2023-05-20T11:10:14;20.60;63.60
66928;DHT22;59882;45.624;11.698;2023-05-20T11:12:40;20.50;63.50
66928;DHT22;59882;45.624;11.698;2023-05-20T11:15:06;20.50;63.60
66928;DHT22;59882;45.624;11.698;2023-05-20T11:17:32;20.60;63.90
66928;DHT22;59882;45.624;11.698;2023-05-20T11:19:58;20.60;63.70
66928;DHT22;59882;45.624;11.698;2023-05-20T11:22:26;20.60;63.80
66928;DHT22;59882;45.624;11.698;2023-05-20T11:24:52;20.60;65.30
66928;DHT22;59882;45.624;11.698;2023-05-20T11:27:18;20.60;65.00
66928;DHT22;59882;45.624;11.698;2023-05-20T11:29:44;20.60;65.70
66928;DHT22;59882;45.624;11.698;2023-05-20T11:32:09;20.60;65.90
66928;DHT22;59882;45.624;11.698;2023-05-20T11:34:37;20.60;65.50
66928;DHT22;59882;45.624;11.698;2023-05-20T11:37:07;20.60;65.70
66928;DHT22;59882;45.624;11.698;2023-05-20T11:39:33;20.60;66.00
66928;DHT22;59882;45.624;11.698;2023-05-20T11:41:59;20.60;66.70
66928;DHT22;59882;45.624;11.698;2023-05-20T11:44:25;20.60;66.70
66928;DHT22;59882;45.624;11.698;2023-05-20T11:46:50;20.60;67.30
66928;DHT22;59882;45.624;11.698;2023-05-20T11:49:16;20.70;66.70
66928;DHT22;59882;45.624;11.698;2023-05-20T11:51:42;20.70;67.00
66928;DHT22;59882;45.624;11.698;2023-05-20T11:54:09;20.70;67.30
66928;DHT22;59882;45.624;11.698;2023-05-20T11:56:37;20.80;67.30
66928;DHT22;59882;45.624;11.698;2023-05-20T11:59:04;20.70;67.70
66928;DHT22;59882;45.624;11.698;2023-05-20T12:01:34;20.70;68.10
66928;DHT22;59882;45.624;11.698;2023-05-20T12:04:07;20.70;68.40
66928;DHT22;59882;45.624;11.698;2023-05-20T12:06:34;20.70;69.40
66928;DHT22;59882;45.624;11.698;2023-05-20T12:09:02;20.70;69.00
66928;DHT22;59882;45.624;11.698;2023-05-20T12:11:33;20.70;69.80
66928;DHT22;59882;45.624;11.698;2023-05-20T12:13:58;20.70;69.30
66928;DHT22;59882;45.624;11.698;2023-05-20T12:16:24;20.70;69.90
66928;DHT22;59882;45.624;11.698;2023-05-20T12:18:49;20.70;70.00
66928;DHT22;59882;45.624;11.698;2023-05-20T12:21:15;20.70;69.90
66928;DHT22;59882;45.624;11.698;2023-05-20T12:23:41;20.70;70.30
66928;DHT22;59882;45.624;11.698;2023-05-20T12:26:06;20.60;70.30
66928;DHT22;59882;45.624;11.698;2023-05-20T12:28:32;20.60;70.70
66928;DHT22;59882;45.624;11.698;2023-05-20T12:30:57;20.60;71.00
66928;DHT22;59882;45.624;11.698;2023-05-20T12:33:23;20.50;71.30
66928;DHT22;59882;45.624;11.698;2023-05-20T12:35:49;20.50;72.40
66928;DHT22;59882;45.624;11.698;2023-05-20T12:38:14;20.40;72.60
66928;DHT22;59882;45.624;11.698;2023-05-20T12:40:40;20.40;72.50
66928;DHT22;59882;45.624;11.698;2023-05-20T12:43:06;20.40;72.60
66928;DHT22;59882;45.624;11.698;2023-05-20T12:45:31;20.40;72.80
66928;DHT22;59882;45.624;11.698;2023-05-20T12:47:57;20.50;72.90
66928;DHT22;59882;45.624;11.698;2023-05-20T12:50:23;20.50;73.60
66928;DHT22;59882;45.624;11.698;2023-05-20T12:52:50;20.40;75.00
66928;DHT22;59882;45.624;11.698;2023-05-20T12:55:16;20.40;75.00
66928;DHT22;59882;45.624;11.698;2023-05-20T12:57:46;20.40;74.50
66928;DHT22;59882;45.624;11.698;2023-05-20T13:00:12;20.40;74.90
66928;DHT22;59882;45.624;11.698;2023-05-20T13:02:40;20.40;74.20
66928;DHT22;59882;45.624;11.698;2023-05-20T13:05:06;20.40;74.10
66928;DHT22;59882;45.624;11.698;2023-05-20T13:07:32;20.40;74.10
66928;DHT22;59882;45.624;11.698;2023-05-20T13:10:00;20.40;74.20
66928;DHT22;59882;45.624;11.698;2023-05-20T13:12:26;20.30;74.40
66928;DHT22;59882;45.624;11.698;2023-05-20T13:14:52;20.30;74.80
66928;DHT22;59882;45.624;11.698;2023-05-20T13:17:18;20.20;74.80
66928;DHT22;59882;45.624;11.698;2023-05-20T13:19:44;20.20;73.80
66928;DHT22;59882;45.624;11.698;2023-05-20T13:22:12;20.10;74.20
66928;DHT22;59882;45.624;11.698;2023-05-20T13:24:38;20.00;75.10
66928;DHT22;59882;45.624;11.698;2023-05-20T13:27:04;19.90;75.30
66928;DHT22;59882;45.624;11.698;2023-05-20T13:29:30;19.90;75.80
66928;DHT22;59882;45.624;11.698;2023-05-20T13:31:56;19.90;75.20
66928;DHT22;59882;45.624;11.698;2023-05-20T13:34:22;19.90;75.10
66928;DHT22;59882;45.624;11.698;2023-05-20T13:36:47;19.90;74.90
66928;DHT22;59882;45.624;11.698;2023-05-20T13:39:16;19.90;75.00
66928;DHT22;59882;45.624;11.698;2023-05-20T13:41:42;19.90;75.20
66928;DHT22;59882;45.624;11.698;2023-05-20T13:44:07;19.90;75.70
66928;DHT22;59882;45.624;11.698;2023-05-20T13:46:34;20.00;75.40
66928;DHT22;59882;45.624;11.698;2023-05-20T13:48:59;19.90;75.50
66928;DHT22;59882;45.624;11.698;2023-05-20T13:51:25;19.90;76.10
66928;DHT22;59882;45.624;11.698;2023-05-20T13:53:51;20.00;75.80
66928;DHT22;59882;45.624;11.698;2023-05-20T13:56:16;20.00;75.90
66928;DHT22;59882;45.624;11.698;2023-05-20T13:58:42;20.00;75.50
66928;DHT22;59882;45.624;11.698;2023-05-20T14:01:08;20.00;75.50
66928;DHT22;59882;45.624;11.698;2023-05-20T14:03:33;20.00;75.90
66928;DHT22;59882;45.624;11.698;2023-05-20T14:06:01;19.90;76.10
66928;DHT22;59882;45.624;11.698;2023-05-20T14:08:27;19.90;76.50
66928;DHT22;59882;45.624;11.698;2023-05-20T14:10:52;19.90;76.00
66928;DHT22;59882;45.624;11.698;2023-05-20T14:13:21;19.90;76.50
66928;DHT22;59882;45.624;11.698;2023-05-20T14:15:47;19.80;76.30
66928;DHT22;59882;45.624;11.698;2023-05-20T14:18:13;19.70;76.50
66928;DHT22;59882;45.624;11.698;2023-05-20T14:20:39;19.60;76.60
66928;DHT22;59882;45.624;11.698;2023-05-20T14:23:04;19.60;77.00
66928;DHT22;59882;45.624;11.698;2023-05-20T14:25:30;19.60;76.60
66928;DHT22;59882;45.624;11.698;2023-05-20T14:27:55;19.70;76.70
66928;DHT22;59882;45.624;11.698;2023-05-20T14:30:21;19.70;77.40
66928;DHT22;59882;45.624;11.698;2023-05-20T14:32:47;19.70;77.00
66928;DHT22;59882;45.624;11.698;2023-05-20T14:35:12;19.70;77.30
66928;DHT22;59882;45.624;11.698;2023-05-20T14:37:38;19.60;77.40
66928;DHT22;59882;45.624;11.698;2023-05-20T14:40:04;19.60;77.10
66928;DHT22;59882;45.624;11.698;2023-05-20T14:42:32;19.60;76.70
66928;DHT22;59882;45.624;11.698;2023-05-20T14:44:58;19.50;77.90
66928;DHT22;59882;45.624;11.698;2023-05-20T14:47:23;19.50;77.20
66928;DHT22;59882;45.624;11.698;2023-05-20T14:49:50;19.40;77.10
66928;DHT22;59882;45.624;11.698;2023-05-20T14:52:16;19.40;77.80
66928;DHT22;59882;45.624;11.698;2023-05-20T14:54:42;19.40;77.60
66928;DHT22;59882;45.624;11.698;2023-05-20T14:57:07;19.40;76.90
66928;DHT22;59882;45.624;11.698;2023-05-20T14:59:33;19.40;76.90
66928;DHT22;59882;45.624;11.698;2023-05-20T15:01:59;19.40;77.70
66928;DHT22;59882;45.624;11.698;2023-05-20T15:04:25;19.40;77.80
66928;DHT22;59882;45.624;11.698;2023-05-20T15:06:51;19.40;77.10
66928;DHT22;59882;45.624;11.698;2023-05-20T15:09:17;19.50;77.30
66928;DHT22;59882;45.624;11.698;2023-05-20T15:11:43;19.50;77.20
66928;DHT22;59882;45.624;11.698;2023-05-20T15:14:08;19.50;77.30
66928;DHT22;59882;45.624;11.698;2023-05-20T15:16:34;19.60;76.70